CheckWX is a tool to help pilots better visualize weather data.  It is not intended as a substitute for an official pre-flight weather briefing.

05:04:34 UTC

KRYV METAR
Watertown Municipal Airport
Watertown, Wisconsin, USA
Current

30 mins ago

KRYV 260435Z AUTO 13004KT 10SM -DZ BKN060 OVC080 18/17 A3000 RMK AO2 T01760167
Observed
Aug-26 @ 04:35 UTC
Wind
  • 130° at 4 KTS
Visibility
10 SM
Flight Rules
VFR
Conditions
Light Drizzle
Cloud Levels
  • Broken at 6,000' AGL
  • Overcast at 8,000' AGL
Temperature
18°C / 64°F
Dewpoint
17°C / 63°F
Humidity
94%
Altimeter
30" Hg
Pressure
1015.92 hPa
Previous

50 mins ago

KRYV 260415Z AUTO 13005KT 10SM SCT070 OVC080 19/15 A2999 RMK AO2 T01850152
Observed
Aug-26 @ 04:15 UTC
Wind
  • 130° at 5 KTS
Visibility
10 SM
Flight Rules
VFR
Cloud Levels
  • Scattered at 7,000' AGL
  • Overcast at 8,000' AGL
Temperature
19°C / 66°F
Dewpoint
15°C / 59°F
Humidity
78%
Altimeter
29.99" Hg
Pressure
1015.62 hPa
Previous

1 hour ago

KRYV 260355Z AUTO 12005KT 10SM SCT070 OVC080 19/15 A2999 RMK AO2 T01870145
Observed
Aug-26 @ 03:55 UTC
Wind
  • 120° at 5 KTS
Visibility
10 SM
Flight Rules
VFR
Cloud Levels
  • Scattered at 7,000' AGL
  • Overcast at 8,000' AGL
Temperature
19°C / 66°F
Dewpoint
15°C / 59°F
Humidity
78%
Altimeter
29.99" Hg
Pressure
1015.62 hPa